createdAt,value
2023-03-07T00:00:34.468Z,10.13
2023-03-07T00:03:37.104Z,10.20
2023-03-07T00:06:39.522Z,11.10
2023-03-07T00:09:41.664Z,11.10
2023-03-07T00:12:44.632Z,10.53
2023-03-07T00:15:46.500Z,8.57
2023-03-07T00:18:49.163Z,10.63
2023-03-07T00:21:51.126Z,11.47
2023-03-07T00:24:53.553Z,11.00
2023-03-07T00:27:55.487Z,10.43
2023-03-07T00:31:02.797Z,10.87
2023-03-07T00:34:05.144Z,11.83
2023-03-07T00:37:07.223Z,11.50
2023-03-07T00:40:10.481Z,11.13
2023-03-07T00:43:12.989Z,11.33
2023-03-07T00:46:16.490Z,10.37
2023-03-07T00:49:18.607Z,10.43
2023-03-07T00:52:20.582Z,10.90
2023-03-07T00:55:23.008Z,10.50
2023-03-07T00:58:25.850Z,11.73
2023-03-07T01:01:27.948Z,11.03
2023-03-07T01:04:30.034Z,11.03
2023-03-07T01:07:32.027Z,11.43
2023-03-07T01:10:34.619Z,11.23
2023-03-07T01:13:37.624Z,10.60
2023-03-07T01:16:39.856Z,11.50
2023-03-07T01:19:42.177Z,9.93
2023-03-07T01:22:44.177Z,10.47
2023-03-07T01:25:46.212Z,10.53
2023-03-07T01:28:50.243Z,10.57
2023-03-07T01:31:52.315Z,10.70
2023-03-07T01:34:54.397Z,12.57
2023-03-07T01:37:56.677Z,12.03
2023-03-07T01:40:58.589Z,10.53
2023-03-07T01:44:02.957Z,11.83
2023-03-07T01:47:04.950Z,12.00
2023-03-07T01:50:12.055Z,11.97
2023-03-07T01:53:16.013Z,12.23
2023-03-07T01:56:18.555Z,11.67
2023-03-07T01:59:28.380Z,12.00
2023-03-07T02:02:30.803Z,12.73
2023-03-07T02:05:38.500Z,10.73
2023-03-07T02:08:40.873Z,9.53
2023-03-07T02:11:43.884Z,11.67
2023-03-07T02:14:48.590Z,12.90
2023-03-07T02:17:51.442Z,11.97
2023-03-07T02:21:06.521Z,9.90
2023-03-07T02:24:30.384Z,12.50
2023-03-07T02:27:34.030Z,11.03
2023-03-07T02:30:41.211Z,12.00
2023-03-07T02:33:43.552Z,12.70
2023-03-07T02:36:45.588Z,12.50
2023-03-07T02:39:48.686Z,11.67
2023-03-07T02:42:53.582Z,12.10
2023-03-07T02:45:56.220Z,12.20
2023-03-07T02:48:58.247Z,12.37
2023-03-07T02:52:00.937Z,12.63
2023-03-07T02:55:02.928Z,11.97
2023-03-07T02:58:05.349Z,11.87
2023-03-07T03:01:07.347Z,11.73
2023-03-07T03:04:09.222Z,11.10
2023-03-07T03:07:11.175Z,10.83
2023-03-07T03:10:13.933Z,10.43
2023-03-07T03:13:16.085Z,9.67
2023-03-07T03:16:18.598Z,12.17
2023-03-07T03:19:20.680Z,12.33
2023-03-07T03:22:22.824Z,12.47
2023-03-07T03:25:25.623Z,12.83
2023-03-07T03:28:27.735Z,12.43
2023-03-07T03:31:30.655Z,11.53
2023-03-07T03:34:32.683Z,11.53
2023-03-07T03:37:34.684Z,12.03
2023-03-07T03:40:38.803Z,11.07
2023-03-07T03:43:40.774Z,10.60
2023-03-07T03:46:42.844Z,10.53
2023-03-07T03:49:44.851Z,11.37
2023-03-07T03:52:46.812Z,11.67
2023-03-07T03:55:48.703Z,12.03
2023-03-07T03:58:53.361Z,12.20
2023-03-07T04:01:55.610Z,11.23
2023-03-07T04:04:58.094Z,12.47
2023-03-07T04:08:00.036Z,12.03
2023-03-07T04:11:02.511Z,12.33
2023-03-07T04:14:04.799Z,11.40
2023-03-07T04:17:07.669Z,11.93
2023-03-07T04:20:15.382Z,10.07
2023-03-07T04:23:19.034Z,10.70
2023-03-07T04:26:21.045Z,10.10
2023-03-07T04:29:23.136Z,9.93
2023-03-07T04:32:25.192Z,10.87
2023-03-07T04:35:27.392Z,11.63
2023-03-07T04:38:29.383Z,11.90
2023-03-07T04:41:31.567Z,11.43
2023-03-07T04:44:33.498Z,13.03
2023-03-07T04:47:35.772Z,12.20
2023-03-07T04:50:37.999Z,11.77
2023-03-07T04:53:39.933Z,11.20
2023-03-07T04:56:41.915Z,12.00
2023-03-07T04:59:44.215Z,11.33
2023-03-07T05:02:47.046Z,13.20
2023-03-07T05:05:49.686Z,12.00
2023-03-07T05:08:51.728Z,11.40
2023-03-07T05:11:53.779Z,12.13
2023-03-07T05:14:55.716Z,12.40
2023-03-07T05:17:58.240Z,12.90
2023-03-07T05:21:00.255Z,12.57
2023-03-07T05:24:03.534Z,12.13
2023-03-07T05:27:05.728Z,11.70
2023-03-07T05:30:08.731Z,11.70
2023-03-07T05:33:11.269Z,12.37
2023-03-07T05:36:13.266Z,11.63
2023-03-07T05:39:16.259Z,11.80
2023-03-07T05:42:18.296Z,11.77
2023-03-07T05:45:21.439Z,12.37
2023-03-07T05:48:23.474Z,12.10
2023-03-07T05:51:25.459Z,11.73
2023-03-07T05:54:27.473Z,11.17
2023-03-07T05:57:29.389Z,13.03
2023-03-07T06:00:31.388Z,12.30
2023-03-07T06:03:33.304Z,13.27
2023-03-07T06:06:36.359Z,12.37
2023-03-07T06:09:38.336Z,12.83
2023-03-07T06:12:40.329Z,10.87
2023-03-07T06:15:42.906Z,12.43
2023-03-07T06:18:44.957Z,12.67
2023-03-07T06:21:47.004Z,12.83
2023-03-07T06:24:49.025Z,12.30
2023-03-07T06:27:50.989Z,12.37
2023-03-07T06:30:53.581Z,9.87
2023-03-07T06:33:57.490Z,13.77
2023-03-07T06:37:00.829Z,12.67
2023-03-07T06:40:06.563Z,13.30
2023-03-07T06:43:08.632Z,12.93
2023-03-07T06:46:10.760Z,12.20
2023-03-07T06:49:13.154Z,12.73
2023-03-07T06:52:15.455Z,13.20
2023-03-07T06:55:19.431Z,12.77
2023-03-07T06:58:21.890Z,13.53
2023-03-07T07:01:23.861Z,13.13
2023-03-07T07:04:25.877Z,13.93
2023-03-07T07:07:27.946Z,13.90
2023-03-07T07:10:30.566Z,13.43
2023-03-07T07:13:32.571Z,13.17
2023-03-07T07:16:36.662Z,13.40
2023-03-07T07:19:39.510Z,12.90
2023-03-07T07:22:41.538Z,13.33
2023-03-07T07:25:43.547Z,11.53
2023-03-07T07:28:45.456Z,11.80
2023-03-07T07:31:47.684Z,10.33
2023-03-07T07:34:49.665Z,11.70
2023-03-07T07:37:52.034Z,10.80
2023-03-07T07:40:54.055Z,11.10
2023-03-07T07:43:56.511Z,12.90
2023-03-07T07:46:58.453Z,12.23
2023-03-07T07:50:00.864Z,13.50
2023-03-07T07:53:02.838Z,13.47
2023-03-07T07:56:05.013Z,12.57
2023-03-07T07:59:07.189Z,12.50
2023-03-07T08:02:13.821Z,12.93
2023-03-07T08:05:16.558Z,13.03
2023-03-07T08:08:20.458Z,12.37
2023-03-07T08:11:24.554Z,13.00
2023-03-07T08:14:27.113Z,12.20
2023-03-07T08:17:30.709Z,12.23
2023-03-07T08:20:32.638Z,12.00
2023-03-07T08:23:35.321Z,10.83
2023-03-07T08:26:37.281Z,12.37
2023-03-07T08:29:39.247Z,12.33
2023-03-07T08:32:41.191Z,10.93
2023-03-07T08:35:43.133Z,10.43
2023-03-07T08:38:50.959Z,9.67
2023-03-07T08:41:55.705Z,9.23
2023-03-07T08:44:57.695Z,11.13
2023-03-07T08:48:00.061Z,11.33
2023-03-07T08:51:07.087Z,10.40
2023-03-07T08:54:09.033Z,10.07
2023-03-07T08:57:11.032Z,10.43
2023-03-07T09:00:14.088Z,10.07
2023-03-07T09:03:18.249Z,9.07
2023-03-07T09:06:21.746Z,9.00
2023-03-07T09:09:23.695Z,9.30
2023-03-07T09:12:26.051Z,9.67
2023-03-07T09:15:27.916Z,9.80
2023-03-07T09:18:31.688Z,9.90
2023-03-07T09:21:33.735Z,9.30
2023-03-07T09:24:35.717Z,9.53
2023-03-07T09:27:37.719Z,8.67
2023-03-07T09:30:39.663Z,9.43
2023-03-07T09:33:44.134Z,8.97
2023-03-07T09:36:47.243Z,8.40
2023-03-07T09:39:50.569Z,9.27
2023-03-07T09:43:05.709Z,8.30
2023-03-07T09:46:20.122Z,8.87
2023-03-07T09:49:33.163Z,9.80
2023-03-07T09:52:39.934Z,9.13
2023-03-07T09:55:44.205Z,8.30
2023-03-07T09:58:51.111Z,8.33
2023-03-07T10:02:05.272Z,9.43
2023-03-07T10:05:25.252Z,9.93
2023-03-07T10:08:31.560Z,9.47
2023-03-07T10:11:59.829Z,9.13
2023-03-07T10:15:27.189Z,8.80
2023-03-07T10:18:41.442Z,8.60
2023-03-07T10:22:06.436Z,8.53
2023-03-07T10:25:23.461Z,9.40
2023-03-07T10:28:34.542Z,8.50
2023-03-07T10:31:42.821Z,10.00
2023-03-07T10:34:44.832Z,9.03
2023-03-07T10:38:03.866Z,8.67
2023-03-07T10:41:17.725Z,8.77
2023-03-07T10:44:21.499Z,8.83
2023-03-07T10:47:28.192Z,10.40
2023-03-07T10:50:30.069Z,8.03
2023-03-07T10:53:35.732Z,9.17
2023-03-07T10:56:38.173Z,9.50
2023-03-07T10:59:44.121Z,9.73
2023-03-07T11:02:46.793Z,9.87
2023-03-07T11:05:49.476Z,8.70
2023-03-07T11:08:51.490Z,9.47
2023-03-07T11:11:56.886Z,9.53
2023-03-07T11:15:12.684Z,8.90
2023-03-07T11:18:46.777Z,9.77
2023-03-07T11:21:54.437Z,9.47
2023-03-07T11:25:11.000Z,9.73
2023-03-07T11:28:33.972Z,9.77
2023-03-07T11:31:41.693Z,9.27
2023-03-07T11:34:54.428Z,9.83
2023-03-07T11:38:12.969Z,10.23
2023-03-07T11:41:21.089Z,9.37
2023-03-07T11:44:44.258Z,10.17
2023-03-07T11:48:25.032Z,10.13
2023-03-07T11:52:17.046Z,10.03
2023-03-07T11:55:36.972Z,9.40
2023-03-07T11:58:56.376Z,9.77
2023-03-07T12:02:00.337Z,9.80
2023-03-07T12:05:36.468Z,9.80
2023-03-07T12:09:05.877Z,10.63
2023-03-07T12:12:23.402Z,10.63
2023-03-07T12:15:32.821Z,10.50
2023-03-07T12:18:51.289Z,9.97
2023-03-07T12:22:18.499Z,10.17
2023-03-07T12:25:31.574Z,10.03
2023-03-07T12:28:41.348Z,9.80
2023-03-07T12:31:50.870Z,10.63
2023-03-07T12:35:07.354Z,10.30
2023-03-07T12:38:32.395Z,10.77
2023-03-07T12:41:48.835Z,9.70
2023-03-07T12:45:13.135Z,10.40
2023-03-07T12:48:37.096Z,10.70
2023-03-07T12:51:46.473Z,9.83
2023-03-07T12:54:59.172Z,9.43
2023-03-07T12:58:06.943Z,9.57
2023-03-07T13:01:32.308Z,10.27
2023-03-07T13:04:36.405Z,9.77
2023-03-07T13:07:38.441Z,10.67
2023-03-07T13:10:40.402Z,10.27
2023-03-07T13:13:45.609Z,10.03
2023-03-07T13:16:47.843Z,9.70
2023-03-07T13:19:54.484Z,11.07
2023-03-07T13:22:59.248Z,10.37
2023-03-07T13:26:08.012Z,11.27
2023-03-07T13:29:09.888Z,11.20
2023-03-07T13:32:51.932Z,10.40
2023-03-07T13:35:57.019Z,10.77
2023-03-07T13:38:59.103Z,11.27
2023-03-07T13:42:00.999Z,11.00
2023-03-07T13:45:02.940Z,11.23
2023-03-07T13:48:30.849Z,11.60
2023-03-07T13:51:32.786Z,11.07
2023-03-07T13:54:34.604Z,10.37
2023-03-07T13:57:39.046Z,9.87
2023-03-07T14:00:50.932Z,10.53
2023-03-07T14:04:00.453Z,10.77
2023-03-07T14:07:32.194Z,10.43
2023-03-07T14:10:35.369Z,10.50
2023-03-07T14:14:13.564Z,10.00
2023-03-07T14:17:31.601Z,10.33
2023-03-07T14:20:54.866Z,11.30
2023-03-07T14:24:05.163Z,10.00
2023-03-07T14:27:13.858Z,10.40
2023-03-07T14:30:17.055Z,9.90
2023-03-07T14:33:18.898Z,10.60
2023-03-07T14:36:23.796Z,10.77
2023-03-07T14:39:32.503Z,10.50
2023-03-07T14:42:55.346Z,10.13
2023-03-07T14:46:32.068Z,9.77
2023-03-07T14:49:42.990Z,10.33
2023-03-07T14:52:45.850Z,9.87
2023-03-07T14:55:49.685Z,10.17
2023-03-07T14:58:54.002Z,10.30
2023-03-07T15:01:57.287Z,10.57
2023-03-07T15:04:59.535Z,10.07
2023-03-07T15:08:01.519Z,9.67
2023-03-07T15:11:13.655Z,10.10
2023-03-07T15:14:20.854Z,10.40
2023-03-07T15:17:28.217Z,10.40
2023-03-07T15:20:30.944Z,10.47
2023-03-07T15:23:32.912Z,10.13
2023-03-07T15:26:35.015Z,10.50
2023-03-07T15:29:37.332Z,10.43
2023-03-07T15:32:41.608Z,9.77
2023-03-07T15:35:44.821Z,9.90
2023-03-07T15:38:52.182Z,10.63
2023-03-07T15:42:02.632Z,10.50
2023-03-07T15:45:05.784Z,9.90
2023-03-07T15:48:11.842Z,10.03
2023-03-07T15:51:24.473Z,10.17
2023-03-07T15:54:33.970Z,8.77
2023-03-07T15:57:51.945Z,10.50
2023-03-07T16:01:18.575Z,10.17
2023-03-07T16:04:34.909Z,9.07
2023-03-07T16:07:36.753Z,10.53
2023-03-07T16:10:43.124Z,10.13
2023-03-07T16:13:45.063Z,8.77
2023-03-07T16:16:47.191Z,10.20
2023-03-07T16:19:49.149Z,10.50
2023-03-07T16:22:51.508Z,9.73
2023-03-07T16:25:53.401Z,10.07
2023-03-07T16:28:55.464Z,10.03
2023-03-07T16:32:01.436Z,10.30
2023-03-07T16:35:04.151Z,10.10
2023-03-07T16:38:07.356Z,10.17
2023-03-07T16:41:17.836Z,10.83
2023-03-07T16:44:21.938Z,10.63
2023-03-07T16:47:23.939Z,10.07
2023-03-07T16:50:28.987Z,9.50
2023-03-07T16:53:31.008Z,9.30
2023-03-07T16:56:35.213Z,9.77
2023-03-07T16:59:38.004Z,9.23
2023-03-07T17:02:39.942Z,9.70
2023-03-07T17:05:42.189Z,9.27
2023-03-07T17:08:44.879Z,8.43
2023-03-07T17:11:49.518Z,9.43
2023-03-07T17:14:51.944Z,10.17
2023-03-07T17:17:54.975Z,9.83
2023-03-07T17:20:56.961Z,9.37
2023-03-07T17:23:58.956Z,8.40
2023-03-07T17:27:03.797Z,9.30
2023-03-07T17:30:06.219Z,9.83
2023-03-07T17:33:10.445Z,9.33
2023-03-07T17:36:12.655Z,8.83
2023-03-07T17:39:14.781Z,9.83
2023-03-07T17:42:16.704Z,8.90
2023-03-07T17:45:19.445Z,9.97
2023-03-07T17:48:21.460Z,9.90
2023-03-07T17:51:23.414Z,10.27
2023-03-07T17:54:25.305Z,8.53
2023-03-07T17:57:29.133Z,9.53
2023-03-07T18:00:31.051Z,9.57
2023-03-07T18:03:33.336Z,9.80
2023-03-07T18:06:38.471Z,9.63
2023-03-07T18:09:42.012Z,9.77
2023-03-07T18:12:44.894Z,9.83
2023-03-07T18:15:47.822Z,9.37
2023-03-07T18:18:58.794Z,9.37
2023-03-07T18:22:02.007Z,9.57
2023-03-07T18:25:06.662Z,10.47
2023-03-07T18:28:08.665Z,9.97
2023-03-07T18:31:13.367Z,8.57
2023-03-07T18:34:15.828Z,8.87
2023-03-07T18:37:18.304Z,9.50
2023-03-07T18:40:23.144Z,9.10
2023-03-07T18:43:25.170Z,9.20
2023-03-07T18:46:30.779Z,10.50
2023-03-07T18:49:33.096Z,13.93
2023-03-07T18:52:35.360Z,11.50
2023-03-07T18:55:40.323Z,10.10
2023-03-07T18:58:43.140Z,9.87
2023-03-07T19:01:45.710Z,8.57
2023-03-07T19:04:48.363Z,9.00
2023-03-07T19:07:50.219Z,9.50
2023-03-07T19:10:52.360Z,9.87
2023-03-07T19:13:57.524Z,9.97
2023-03-07T19:16:59.542Z,8.87
2023-03-07T19:20:02.347Z,8.47
2023-03-07T19:23:04.870Z,8.63
2023-03-07T19:26:08.965Z,9.30
2023-03-07T19:29:12.947Z,9.60
2023-03-07T19:32:14.891Z,8.93
2023-03-07T19:35:17.048Z,9.27
2023-03-07T19:38:18.918Z,10.20
2023-03-07T19:41:23.466Z,9.10
2023-03-07T19:44:25.457Z,9.53
2023-03-07T19:47:27.326Z,9.40
2023-03-07T19:50:29.811Z,9.77
2023-03-07T19:53:31.943Z,8.67
2023-03-07T19:56:33.951Z,8.87
2023-03-07T19:59:35.801Z,8.77
2023-03-07T20:02:38.358Z,8.27
2023-03-07T20:05:47.138Z,8.87
2023-03-07T20:08:51.318Z,9.40
2023-03-07T20:11:56.759Z,8.40
2023-03-07T20:14:58.860Z,9.30
2023-03-07T20:18:04.217Z,9.07
2023-03-07T20:21:08.838Z,8.43
2023-03-07T20:24:11.985Z,8.57
2023-03-07T20:27:21.320Z,9.10
2023-03-07T20:30:25.441Z,8.10
2023-03-07T20:33:27.574Z,7.97
2023-03-07T20:36:32.219Z,7.70
2023-03-07T20:39:34.227Z,8.20
2023-03-07T20:42:36.421Z,7.83
2023-03-07T20:45:38.719Z,8.30
2023-03-07T20:48:41.650Z,8.13
2023-03-07T20:51:44.656Z,7.80
2023-03-07T20:54:46.693Z,9.10
2023-03-07T20:57:48.856Z,9.17
2023-03-07T21:00:53.230Z,8.27
2023-03-07T21:03:55.723Z,8.37
2023-03-07T21:06:58.300Z,8.87
2023-03-07T21:10:01.258Z,8.40
2023-03-07T21:13:03.836Z,8.13
2023-03-07T21:16:12.353Z,7.83
2023-03-07T21:19:14.719Z,7.50
2023-03-07T21:22:17.657Z,7.80
2023-03-07T21:25:19.596Z,7.97
2023-03-07T21:28:21.739Z,8.40
2023-03-07T21:31:29.275Z,7.77
2023-03-07T21:34:31.609Z,8.87
2023-03-07T21:37:35.906Z,7.80
2023-03-07T21:40:37.883Z,7.97
2023-03-07T21:43:39.811Z,8.77
2023-03-07T21:46:41.897Z,7.97
2023-03-07T21:49:43.782Z,8.43
2023-03-07T21:52:46.450Z,7.93
2023-03-07T21:56:00.440Z,7.93
2023-03-07T21:59:02.460Z,8.33
2023-03-07T22:02:04.406Z,7.43
2023-03-07T22:05:06.834Z,7.23
2023-03-07T22:08:08.858Z,8.60
2023-03-07T22:11:12.541Z,8.87
2023-03-07T22:14:14.843Z,8.60
2023-03-07T22:17:16.758Z,8.27
2023-03-07T22:20:18.940Z,8.40
2023-03-07T22:23:21.484Z,8.13
2023-03-07T22:26:24.685Z,8.40
2023-03-07T22:29:26.772Z,8.03
2023-03-07T22:32:28.770Z,7.57
2023-03-07T22:35:30.840Z,7.93
2023-03-07T22:38:33.022Z,8.30
2023-03-07T22:41:35.247Z,8.37
2023-03-07T22:44:37.261Z,8.10
2023-03-07T22:47:39.264Z,8.33
2023-03-07T22:50:42.267Z,7.07
2023-03-07T22:53:44.375Z,7.13
2023-03-07T22:56:46.279Z,7.57
2023-03-07T22:59:49.127Z,8.50
2023-03-07T23:02:51.101Z,9.33
2023-03-07T23:05:53.632Z,8.40
2023-03-07T23:08:56.378Z,8.57
2023-03-07T23:11:59.074Z,8.53
2023-03-07T23:15:01.074Z,8.20
2023-03-07T23:18:03.143Z,8.70
2023-03-07T23:21:15.856Z,8.77
2023-03-07T23:24:17.860Z,9.37
2023-03-07T23:27:19.753Z,8.97
2023-03-07T23:30:22.135Z,9.23
2023-03-07T23:33:24.429Z,9.93
2023-03-07T23:36:27.265Z,9.40
2023-03-07T23:39:29.147Z,10.48
2023-03-07T23:42:31.174Z,9.60
2023-03-07T23:45:33.114Z,9.77
2023-03-07T23:48:35.078Z,9.70
2023-03-07T23:51:37.535Z,10.73
2023-03-07T23:54:42.136Z,9.77
2023-03-07T23:57:44.070Z,10.30
